createdAt,value
2022-08-23T00:01:33.752Z,96950.16
2022-08-23T00:04:05.709Z,96948.34
2022-08-23T00:06:35.735Z,96944.72
2022-08-23T00:09:04.946Z,96946.88
2022-08-23T00:11:37.431Z,96942.66
2022-08-23T00:14:10.924Z,96941.72
2022-08-23T00:16:41.123Z,96939.91
2022-08-23T00:19:13.472Z,96943.47
2022-08-23T00:21:44.073Z,96935.94
2022-08-23T00:24:14.770Z,96937.28
2022-08-23T00:27:01.521Z,96936.50
2022-08-23T00:29:42.540Z,96934.91
2022-08-23T00:32:15.897Z,96936.03
2022-08-23T00:34:44.239Z,96940.72
2022-08-23T00:37:14.841Z,96934.69
2022-08-23T00:39:43.629Z,96933.53
2022-08-23T00:42:37.250Z,96927.69
2022-08-23T00:45:24.591Z,96938.56
2022-08-23T00:47:54.596Z,96937.63
2022-08-23T00:50:28.468Z,96933.19
2022-08-23T00:53:12.077Z,96941.19
2022-08-23T00:55:43.540Z,96930.88
2022-08-23T00:58:14.555Z,96932.13
2022-08-23T01:00:42.889Z,96939.47
2022-08-23T01:03:14.549Z,96935.59
2022-08-23T01:06:02.606Z,96935.81
2022-08-23T01:08:35.548Z,96940.84
2022-08-23T01:11:10.600Z,96933.16
2022-08-23T01:13:46.414Z,96939.69
2022-08-23T01:16:22.728Z,96943.16
2022-08-23T01:18:52.888Z,96942.34
2022-08-23T01:21:32.251Z,96940.31
2022-08-23T01:24:07.892Z,96934.88
2022-08-23T01:26:36.234Z,96937.41
2022-08-23T01:29:08.163Z,96935.00
2022-08-23T01:31:37.712Z,96932.50
2022-08-23T01:34:10.500Z,96929.97
2022-08-23T01:36:39.500Z,96933.38
2022-08-23T01:39:09.208Z,96936.00
2022-08-23T01:41:38.811Z,96941.59
2022-08-23T01:44:09.137Z,96951.28
2022-08-23T01:46:38.979Z,96942.53
2022-08-23T01:49:08.473Z,96946.53
2022-08-23T01:51:37.603Z,96943.56
2022-08-23T01:54:08.460Z,96937.16
2022-08-23T01:56:39.527Z,96941.63
2022-08-23T01:59:14.087Z,96942.53
2022-08-23T02:01:47.348Z,96942.34
2022-08-23T02:04:16.257Z,96946.88
2022-08-23T02:06:44.485Z,96946.75
2022-08-23T02:09:19.483Z,96943.34
2022-08-23T02:11:48.880Z,96949.28
2022-08-23T02:14:22.319Z,96944.06
2022-08-23T02:17:03.304Z,96947.81
2022-08-23T02:19:34.891Z,96950.78
2022-08-23T02:22:06.660Z,96946.31
2022-08-23T02:24:42.010Z,96939.47
2022-08-23T02:27:11.260Z,96947.81
2022-08-23T02:29:46.627Z,96942.28
2022-08-23T02:32:19.496Z,96936.53
2022-08-23T02:37:37.132Z,96933.53
2022-08-23T02:40:08.849Z,96938.22
2022-08-23T02:42:37.512Z,96949.66
2022-08-23T02:45:08.555Z,96946.78
2022-08-23T02:47:42.764Z,96950.47
2022-08-23T02:50:26.021Z,96941.25
2022-08-23T02:52:56.058Z,96941.56
2022-08-23T02:55:26.264Z,96941.69
2022-08-23T02:57:55.320Z,96941.16
2022-08-23T03:00:24.644Z,96951.94
2022-08-23T03:02:53.621Z,96952.44
2022-08-23T03:05:22.902Z,96955.03
2022-08-23T03:07:51.778Z,96958.09
2022-08-23T03:10:20.419Z,96954.97
2022-08-23T03:12:56.747Z,96954.94
2022-08-23T03:15:25.181Z,96958.94
2022-08-23T03:17:53.735Z,96960.25
2022-08-23T03:20:22.823Z,96956.50
2022-08-23T03:22:55.017Z,96951.91
2022-08-23T03:25:26.441Z,96957.13
2022-08-23T03:28:15.044Z,96962.03
2022-08-23T03:30:46.038Z,96966.09
2022-08-23T03:33:15.048Z,96965.53
2022-08-23T03:35:45.145Z,96962.66
2022-08-23T03:38:15.059Z,96963.19
2022-08-23T03:40:45.691Z,96965.19
2022-08-23T03:43:15.750Z,96960.59
2022-08-23T03:45:44.134Z,96970.00
2022-08-23T03:48:12.683Z,96976.47
2022-08-23T03:50:41.166Z,96969.59
2022-08-23T03:53:10.996Z,96969.38
2022-08-23T03:55:43.119Z,96974.50
2022-08-23T03:58:17.444Z,96975.50
2022-08-23T04:00:45.964Z,96976.28
2022-08-23T04:03:14.839Z,96979.69
2022-08-23T04:05:59.340Z,96981.63
2022-08-23T04:08:33.709Z,96979.84
2022-08-23T04:11:04.326Z,96988.09
2022-08-23T04:13:35.324Z,96976.34
2022-08-23T04:16:05.976Z,96982.28
2022-08-23T04:18:36.776Z,96986.53
2022-08-23T04:21:13.993Z,96986.16
2022-08-23T04:23:43.362Z,96999.53
2022-08-23T04:26:12.453Z,96997.13
2022-08-23T04:28:44.831Z,97000.06
2022-08-23T04:31:15.019Z,97001.06
2022-08-23T04:33:45.903Z,96995.25
2022-08-23T04:36:23.463Z,96990.88
2022-08-23T04:38:53.123Z,97001.25
2022-08-23T04:41:39.136Z,97001.56
2022-08-23T04:44:08.872Z,97000.56
2022-08-23T04:46:37.616Z,96997.38
2022-08-23T04:49:05.877Z,97005.59
2022-08-23T04:51:34.518Z,97001.56
2022-08-23T04:54:03.241Z,97004.63
2022-08-23T04:56:44.414Z,97006.38
2022-08-23T04:59:21.555Z,96999.25
2022-08-23T05:01:50.954Z,97008.22
2022-08-23T05:04:19.519Z,97014.72
2022-08-23T05:06:48.878Z,97011.91
2022-08-23T05:09:20.553Z,97022.22
2022-08-23T05:11:49.994Z,97018.22
2022-08-23T05:14:20.967Z,97017.69
2022-08-23T05:16:51.982Z,97024.69
2022-08-23T05:19:20.395Z,97026.25
2022-08-23T05:21:49.034Z,97033.25
2022-08-23T05:24:18.020Z,97024.28
2022-08-23T05:26:48.406Z,97029.25
2022-08-23T05:29:17.340Z,97035.81
2022-08-23T05:31:51.211Z,97031.63
2022-08-23T05:34:22.953Z,97024.03
2022-08-23T05:36:57.337Z,97038.38
2022-08-23T05:39:36.111Z,97036.13
2022-08-23T05:42:10.719Z,97044.53
2022-08-23T05:44:39.414Z,97045.78
2022-08-23T05:47:15.905Z,97047.34
2022-08-23T05:50:19.751Z,97054.75
2022-08-23T05:52:51.117Z,97052.22
2022-08-23T05:55:22.160Z,97053.69
2022-08-23T05:58:17.013Z,97056.59
2022-08-23T06:00:46.638Z,97055.47
2022-08-23T06:03:17.181Z,97061.69
2022-08-23T06:05:48.085Z,97060.38
2022-08-23T06:08:17.194Z,97059.16
2022-08-23T06:10:45.645Z,97059.66
2022-08-23T06:13:27.849Z,97064.09
2022-08-23T06:15:57.910Z,97068.38
2022-08-23T06:18:29.246Z,97064.94
2022-08-23T06:21:11.393Z,97070.97
2022-08-23T06:23:49.510Z,97062.44
2022-08-23T06:26:22.517Z,97068.41
2022-08-23T06:28:54.340Z,97062.53
2022-08-23T06:31:39.798Z,97064.56
2022-08-23T06:34:18.520Z,97067.50
2022-08-23T06:37:09.656Z,97068.03
2022-08-23T06:39:58.605Z,97065.91
2022-08-23T06:42:44.821Z,97065.09
2022-08-23T06:45:14.336Z,97070.22
2022-08-23T06:47:49.490Z,97075.13
2022-08-23T06:50:19.408Z,97072.47
2022-08-23T06:53:07.025Z,97074.50
2022-08-23T06:55:47.998Z,97080.50
2022-08-23T06:58:20.068Z,97076.53
2022-08-23T07:01:48.951Z,97078.81
2022-08-23T07:04:28.902Z,97079.69
2022-08-23T07:07:17.504Z,97086.81
2022-08-23T07:09:45.893Z,97089.63
2022-08-23T07:12:14.517Z,97094.41
2022-08-23T07:14:45.080Z,97097.59
2022-08-23T07:17:14.875Z,97099.56
2022-08-23T07:19:44.982Z,97098.34
2022-08-23T07:22:15.566Z,97108.25
2022-08-23T07:24:45.934Z,97109.00
2022-08-23T07:27:15.567Z,97106.34
2022-08-23T07:30:00.778Z,97101.88
2022-08-23T07:32:29.672Z,97112.97
2022-08-23T07:34:59.670Z,97108.03
2022-08-23T07:37:31.811Z,97107.69
2022-08-23T07:40:03.505Z,97118.28
2022-08-23T07:42:34.118Z,97113.84
2022-08-23T07:45:02.802Z,97111.09
2022-08-23T07:47:33.937Z,97120.19
2022-08-23T07:50:02.375Z,97124.75
2022-08-23T07:52:33.620Z,97123.59
2022-08-23T07:55:03.838Z,97124.03
2022-08-23T07:57:58.250Z,97118.69
2022-08-23T08:00:37.432Z,97124.13
2022-08-23T08:03:28.776Z,97125.16
2022-08-23T08:06:12.781Z,97122.41
2022-08-23T08:08:43.837Z,97123.38
2022-08-23T08:11:16.484Z,97114.53
2022-08-23T08:13:48.227Z,97118.19
2022-08-23T08:16:24.709Z,97119.50
2022-08-23T08:18:55.561Z,97125.50
2022-08-23T08:21:45.713Z,97121.91
2022-08-23T08:24:40.697Z,97127.53
2022-08-23T08:27:14.617Z,97129.53
2022-08-23T08:29:45.146Z,97129.06
2022-08-23T08:32:14.293Z,97125.25
2022-08-23T08:34:43.802Z,97120.13
2022-08-23T08:37:13.308Z,97126.44
2022-08-23T08:39:46.134Z,97119.50
2022-08-23T08:42:44.662Z,97129.25
2022-08-23T08:45:19.965Z,97133.16
2022-08-23T08:47:54.560Z,97133.72
2022-08-23T08:50:33.909Z,97134.13
2022-08-23T08:53:10.899Z,97132.50
2022-08-23T08:56:03.852Z,97127.31
2022-08-23T08:58:50.111Z,97135.88
2022-08-23T09:01:22.074Z,97127.34
2022-08-23T09:03:52.447Z,97130.34
2022-08-23T09:06:31.605Z,97123.69
2022-08-23T09:09:19.726Z,97130.00
2022-08-23T09:12:02.167Z,97122.63
2022-08-23T09:15:07.017Z,97125.16
2022-08-23T09:17:45.153Z,97122.09
2022-08-23T09:20:18.723Z,97118.91
2022-08-23T09:22:58.215Z,97119.78
2022-08-23T09:25:31.670Z,97126.91
2022-08-23T09:28:09.800Z,97115.72
2022-08-23T09:30:50.671Z,97119.34
2022-08-23T09:33:26.223Z,97126.31
2022-08-23T09:36:18.996Z,97123.06
2022-08-23T09:38:58.012Z,97112.91
2022-08-23T09:41:36.528Z,97120.94
2022-08-23T09:44:09.439Z,97112.75
2022-08-23T09:46:42.010Z,97111.25
2022-08-23T09:49:30.199Z,97117.56
2022-08-23T09:52:26.822Z,97103.38
2022-08-23T09:55:05.466Z,97105.50
2022-08-23T09:57:40.143Z,97101.06
2022-08-23T10:00:26.210Z,97095.81
2022-08-23T10:03:16.555Z,97098.75
2022-08-23T10:05:54.575Z,97100.75
2022-08-23T10:08:28.408Z,97109.72
2022-08-23T10:11:13.396Z,97096.34
2022-08-23T10:13:44.703Z,97095.16
2022-08-23T10:16:29.088Z,97092.06
2022-08-23T10:19:20.931Z,97083.66
2022-08-23T10:22:02.142Z,97093.22
2022-08-23T10:24:46.049Z,97090.31
2022-08-23T10:27:50.890Z,97091.06
2022-08-23T10:30:28.740Z,97079.78
2022-08-23T10:33:09.736Z,97085.50
2022-08-23T10:36:04.949Z,97087.50
2022-08-23T10:38:47.113Z,97083.22
2022-08-23T10:41:46.784Z,97077.19
2022-08-23T10:44:29.230Z,97070.63
2022-08-23T10:47:16.926Z,97066.41
2022-08-23T10:49:50.723Z,97073.44
2022-08-23T10:52:28.100Z,97071.53
2022-08-23T10:55:06.490Z,97075.22
2022-08-23T10:57:42.411Z,97070.66
2022-08-23T11:00:18.068Z,97081.16
2022-08-23T11:02:59.457Z,97080.84
2022-08-23T11:05:38.717Z,97075.13
2022-08-23T11:08:36.512Z,97068.97
2022-08-23T11:11:43.116Z,97074.56
2022-08-23T11:14:27.009Z,97068.03
2022-08-23T11:17:03.365Z,97061.09
2022-08-23T11:19:52.522Z,97056.19
2022-08-23T11:22:25.194Z,97053.91
2022-08-23T11:25:03.573Z,97054.91
2022-08-23T11:27:41.608Z,97046.97
2022-08-23T11:30:50.791Z,97056.59
2022-08-23T11:33:35.587Z,97051.25
2022-08-23T11:36:21.836Z,97062.22
2022-08-23T11:39:13.242Z,97060.91
2022-08-23T11:42:07.198Z,97056.47
2022-08-23T11:44:48.157Z,97054.22
2022-08-23T11:47:31.154Z,97053.91
2022-08-23T11:50:27.984Z,97050.63
2022-08-23T11:53:25.866Z,97053.41
2022-08-23T11:56:35.932Z,97051.22
2022-08-23T11:59:38.458Z,97050.88
2022-08-23T12:02:37.126Z,97060.00
2022-08-23T12:05:21.867Z,97044.88
2022-08-23T12:08:17.384Z,97048.91
2022-08-23T12:11:09.208Z,97054.66
2022-08-23T12:14:01.486Z,97055.38
2022-08-23T12:16:49.613Z,97049.84
2022-08-23T12:19:35.818Z,97050.00
2022-08-23T12:22:14.729Z,97050.31
2022-08-23T12:24:52.373Z,97044.34
2022-08-23T12:27:33.817Z,97044.69
2022-08-23T12:30:10.880Z,97039.13
2022-08-23T12:32:54.829Z,97046.88
2022-08-23T12:35:41.208Z,97051.56
2022-08-23T12:38:16.718Z,97046.75
2022-08-23T12:40:50.972Z,97045.91
2022-08-23T12:43:27.816Z,97051.44
2022-08-23T12:46:00.902Z,97045.94
2022-08-23T12:48:46.115Z,97046.63
2022-08-23T12:51:14.423Z,97043.03
2022-08-23T12:53:46.153Z,97043.16
2022-08-23T12:56:22.752Z,97041.72
2022-08-23T12:59:05.585Z,97041.38
2022-08-23T13:01:38.447Z,97042.44
2022-08-23T13:04:13.482Z,97041.63
2022-08-23T13:06:47.926Z,97038.06
2022-08-23T13:09:23.642Z,97039.28
2022-08-23T13:11:53.153Z,97030.63
2022-08-23T13:14:31.048Z,97027.41
2022-08-23T13:17:13.174Z,97013.19
2022-08-23T13:19:47.210Z,97021.22
2022-08-23T13:22:25.021Z,97022.06
2022-08-23T13:25:28.761Z,97023.72
2022-08-23T13:28:03.711Z,97018.53
2022-08-23T13:30:36.313Z,97017.72
2022-08-23T13:33:25.474Z,97012.09
2022-08-23T13:36:13.924Z,97011.34
2022-08-23T13:38:45.117Z,97012.25
2022-08-23T13:41:31.825Z,97014.53
2022-08-23T13:44:09.580Z,97010.69
2022-08-23T13:46:48.331Z,97013.34
2022-08-23T13:49:21.369Z,97008.75
2022-08-23T13:54:43.182Z,97003.50
2022-08-23T13:57:16.349Z,97004.94
2022-08-23T13:59:51.881Z,97011.81
2022-08-23T14:02:24.339Z,97003.94
2022-08-23T14:04:52.926Z,97000.22
2022-08-23T14:07:22.168Z,96996.66
2022-08-23T14:09:54.989Z,97004.13
2022-08-23T14:12:28.625Z,97003.00
2022-08-23T14:14:57.746Z,96996.28
2022-08-23T14:17:26.647Z,96984.34
2022-08-23T14:20:32.011Z,96989.59
2022-08-23T14:22:44.141Z,96982.91
2022-08-23T14:25:15.258Z,96985.25
2022-08-23T14:27:46.834Z,96987.72
2022-08-23T14:30:29.304Z,96987.84
2022-08-23T14:32:59.054Z,96982.72
2022-08-23T14:35:28.020Z,96983.59
2022-08-23T14:38:05.287Z,96979.56
2022-08-23T14:40:37.255Z,96982.06
2022-08-23T14:43:06.064Z,96973.91
2022-08-23T14:45:34.647Z,96980.47
2022-08-23T14:48:03.395Z,96981.75
2022-08-23T14:50:31.778Z,96972.50
2022-08-23T14:53:03.497Z,96971.53
2022-08-23T14:55:32.016Z,96978.16
2022-08-23T14:58:01.622Z,96976.91
2022-08-23T15:00:30.041Z,96977.50
2022-08-23T15:02:58.906Z,96980.50
2022-08-23T15:05:27.375Z,96977.38
2022-08-23T15:07:55.657Z,96985.22
2022-08-23T15:13:21.664Z,96981.75
2022-08-23T15:15:55.721Z,96980.63
2022-08-23T15:18:24.352Z,96987.38
2022-08-23T15:20:53.086Z,96978.47
2022-08-23T15:23:22.105Z,96982.75
2022-08-23T15:25:51.087Z,96973.47
2022-08-23T15:28:23.867Z,96978.66
2022-08-23T15:30:52.907Z,96970.00
2022-08-23T15:33:25.337Z,96967.16
2022-08-23T15:35:55.971Z,96977.22
2022-08-23T15:38:26.786Z,96972.78
2022-08-23T15:40:56.890Z,96972.38
2022-08-23T15:43:34.400Z,96970.28
2022-08-23T15:46:06.779Z,96977.28
2022-08-23T15:48:38.513Z,96980.19
2022-08-23T15:51:07.696Z,96979.38
2022-08-23T15:53:39.230Z,96985.84
2022-08-23T15:56:13.980Z,96972.03
2022-08-23T15:58:44.016Z,96974.88
2022-08-23T16:01:13.130Z,96989.84
2022-08-23T16:03:43.713Z,96980.41
2022-08-23T16:06:14.501Z,96985.59
2022-08-23T16:08:48.618Z,96971.19
2022-08-23T16:11:16.917Z,96982.75
2022-08-23T16:13:50.124Z,96979.44
2022-08-23T16:16:24.637Z,96983.28
2022-08-23T16:18:55.073Z,96979.06
2022-08-23T16:21:26.317Z,96979.34
2022-08-23T16:23:55.951Z,96976.03
2022-08-23T16:26:34.917Z,96986.75
2022-08-23T16:29:10.878Z,96979.78
2022-08-23T16:31:39.913Z,96983.31
2022-08-23T16:34:10.311Z,96978.50
2022-08-23T16:36:41.075Z,96972.53
2022-08-23T16:39:10.654Z,96982.72
2022-08-23T16:41:39.360Z,96985.50
2022-08-23T16:44:09.799Z,96984.41
2022-08-23T16:46:41.172Z,96984.25
2022-08-23T16:49:10.115Z,96982.34
2022-08-23T16:51:38.668Z,96986.41
2022-08-23T16:54:08.413Z,96993.00
2022-08-23T16:56:39.086Z,96989.28
2022-08-23T16:59:13.304Z,96982.44
2022-08-23T17:01:49.442Z,96987.63
2022-08-23T17:04:18.906Z,96989.19
2022-08-23T17:06:47.841Z,96989.03
2022-08-23T17:09:16.447Z,96990.56
2022-08-23T17:11:45.762Z,96994.88
2022-08-23T17:14:16.141Z,96993.41
2022-08-23T17:16:45.088Z,96987.78
2022-08-23T17:19:15.347Z,96995.97
2022-08-23T17:21:45.088Z,96999.84
2022-08-23T17:24:13.442Z,96994.09
2022-08-23T17:26:41.739Z,97006.63
2022-08-23T17:29:10.412Z,96998.75
2022-08-23T17:31:40.351Z,97007.75
2022-08-23T17:34:09.046Z,97013.97
2022-08-23T17:36:41.833Z,97010.28
2022-08-23T17:39:19.854Z,97009.28
2022-08-23T17:41:49.050Z,97022.88
2022-08-23T17:44:20.291Z,97015.78
2022-08-23T17:46:51.068Z,97014.69
2022-08-23T17:49:21.190Z,97020.31
2022-08-23T17:51:49.862Z,97019.88
2022-08-23T17:54:18.506Z,97027.47
2022-08-23T17:56:50.031Z,97030.66
2022-08-23T17:59:19.804Z,97035.41
2022-08-23T18:01:49.742Z,97033.06
2022-08-23T18:04:18.120Z,97031.88
2022-08-23T18:06:47.434Z,97034.69
2022-08-23T18:09:16.691Z,97042.28
2022-08-23T18:11:46.471Z,97039.09
2022-08-23T18:14:14.805Z,97044.72
2022-08-23T18:16:44.099Z,97046.69
2022-08-23T18:19:15.559Z,97050.22
2022-08-23T18:21:45.439Z,97049.38
2022-08-23T18:24:14.740Z,97053.34
2022-08-23T18:27:01.656Z,97059.69
2022-08-23T18:29:34.987Z,97069.25
2022-08-23T18:32:07.005Z,97061.69
2022-08-23T18:34:37.880Z,97065.59
2022-08-23T18:37:07.256Z,97072.31
2022-08-23T18:39:35.890Z,97071.53
2022-08-23T18:42:09.147Z,97075.84
2022-08-23T18:44:37.742Z,97075.06
2022-08-23T18:47:06.389Z,97084.94
2022-08-23T18:49:37.340Z,97085.31
2022-08-23T18:52:07.119Z,97091.66
2022-08-23T18:54:37.489Z,97092.88
2022-08-23T18:57:06.265Z,97098.44
2022-08-23T18:59:34.593Z,97092.78
2022-08-23T19:02:02.941Z,97101.13
2022-08-23T19:04:31.512Z,97109.44
2022-08-23T19:07:01.201Z,97109.34
2022-08-23T19:09:30.175Z,97106.56
2022-08-23T19:12:00.301Z,97116.94
2022-08-23T19:14:29.529Z,97125.22
2022-08-23T19:16:58.218Z,97124.47
2022-08-23T19:19:26.970Z,97120.47
2022-08-23T19:21:55.321Z,97137.97
2022-08-23T19:24:25.494Z,97127.50
2022-08-23T19:26:54.445Z,97141.53
2022-08-23T19:29:23.118Z,97139.50
2022-08-23T19:31:51.780Z,97149.28
2022-08-23T19:34:22.285Z,97142.41
2022-08-23T19:37:00.774Z,97151.66
2022-08-23T19:39:32.205Z,97151.97
2022-08-23T19:42:00.606Z,97159.13
2022-08-23T19:44:31.100Z,97157.00
2022-08-23T19:46:59.534Z,97157.94
2022-08-23T19:49:28.235Z,97162.19
2022-08-23T19:51:56.641Z,97162.53
2022-08-23T19:54:25.956Z,97166.47
2022-08-23T19:56:59.481Z,97176.59
2022-08-23T19:59:31.941Z,97181.63
2022-08-23T20:02:00.919Z,97166.81
2022-08-23T20:04:32.470Z,97169.25
2022-08-23T20:07:02.545Z,97167.31
2022-08-23T20:09:33.370Z,97172.56
2022-08-23T20:12:03.700Z,97170.59
2022-08-23T20:14:34.307Z,97169.38
2022-08-23T20:17:06.632Z,97169.25
2022-08-23T20:19:36.272Z,97170.22
2022-08-23T20:22:23.227Z,97174.88
2022-08-23T20:24:53.114Z,97171.28
2022-08-23T20:27:25.337Z,97167.31
2022-08-23T20:30:01.410Z,97181.28
2022-08-23T20:32:31.336Z,97175.03
2022-08-23T20:35:00.488Z,97172.63
2022-08-23T20:37:29.732Z,97182.03
2022-08-23T20:39:58.270Z,97178.53
2022-08-23T20:42:28.558Z,97180.94
2022-08-23T20:44:57.286Z,97181.81
2022-08-23T20:47:26.077Z,97181.81
2022-08-23T20:49:54.479Z,97181.75
2022-08-23T20:52:22.877Z,97188.81
2022-08-23T20:54:52.129Z,97180.81
2022-08-23T20:57:20.532Z,97187.94
2022-08-23T20:59:50.205Z,97181.63
2022-08-23T21:02:18.701Z,97184.75
2022-08-23T21:04:47.565Z,97184.44
2022-08-23T21:07:16.740Z,97186.00
2022-08-23T21:09:45.028Z,97184.16
2022-08-23T21:12:13.669Z,97187.94
2022-08-23T21:14:41.998Z,97195.09
2022-08-23T21:17:11.785Z,97198.13
2022-08-23T21:19:40.098Z,97189.00
2022-08-23T21:22:08.914Z,97189.81
2022-08-23T21:24:38.464Z,97194.09
2022-08-23T21:27:09.531Z,97190.13
2022-08-23T21:29:38.765Z,97188.09
2022-08-23T21:32:08.080Z,97194.34
2022-08-23T21:34:37.842Z,97189.94
2022-08-23T21:37:06.656Z,97191.09
2022-08-23T21:39:35.404Z,97188.94
2022-08-23T21:42:14.675Z,97198.84
2022-08-23T21:44:45.109Z,97190.25
2022-08-23T21:47:14.876Z,97196.50
2022-08-23T21:49:44.656Z,97197.34
2022-08-23T21:52:13.257Z,97193.31
2022-08-23T21:54:43.739Z,97196.38
2022-08-23T21:57:12.690Z,97196.38
2022-08-23T21:59:41.591Z,97187.31
2022-08-23T22:02:10.852Z,97194.53
2022-08-23T22:04:39.921Z,97189.00
2022-08-23T22:07:09.640Z,97191.78
2022-08-23T22:09:38.641Z,97191.88
2022-08-23T22:12:08.839Z,97189.91
2022-08-23T22:14:37.220Z,97190.63
2022-08-23T22:17:06.439Z,97194.47
2022-08-23T22:19:34.772Z,97195.63
2022-08-23T22:22:03.173Z,97201.53
2022-08-23T22:24:33.042Z,97200.72
2022-08-23T22:27:01.908Z,97204.59
2022-08-23T22:29:30.745Z,97196.25
2022-08-23T22:31:59.168Z,97201.34
2022-08-23T22:34:27.572Z,97208.69
2022-08-23T22:36:56.762Z,97201.84
2022-08-23T22:39:25.496Z,97198.66
2022-08-23T22:41:55.406Z,97206.88
2022-08-23T22:44:24.121Z,97199.00
2022-08-23T22:46:52.757Z,97206.50
2022-08-23T22:49:21.822Z,97205.63
2022-08-23T22:51:55.425Z,97198.44
2022-08-23T22:54:25.113Z,97203.03
2022-08-23T22:56:55.488Z,97201.47
2022-08-23T22:59:27.575Z,97198.66
2022-08-23T23:01:58.626Z,97203.69
2022-08-23T23:04:29.416Z,97204.09
2022-08-23T23:06:59.242Z,97200.47
2022-08-23T23:09:28.525Z,97194.44
2022-08-23T23:11:58.365Z,97197.13
2022-08-23T23:14:27.247Z,97195.88
2022-08-23T23:16:55.718Z,97195.50
2022-08-23T23:19:41.640Z,97193.84
2022-08-23T23:22:11.320Z,97191.06
2022-08-23T23:24:41.300Z,97182.09
2022-08-23T23:27:11.141Z,97187.63
2022-08-23T23:29:39.758Z,97192.06
2022-08-23T23:32:08.402Z,97183.72
2022-08-23T23:34:37.972Z,97178.19
2022-08-23T23:37:07.219Z,97180.16
2022-08-23T23:39:35.662Z,97177.78
2022-08-23T23:42:04.384Z,97182.41
2022-08-23T23:44:34.276Z,97176.00
2022-08-23T23:47:03.731Z,97172.63
2022-08-23T23:49:33.775Z,97171.72
2022-08-23T23:52:04.961Z,97184.38
2022-08-23T23:54:38.593Z,97183.50
2022-08-23T23:57:08.011Z,97189.38
2022-08-23T23:59:38.664Z,97187.41
